createdAt,value
2019-01-30T00:01:57.453Z,-3.40
2019-01-30T00:04:29.514Z,-3.40
2019-01-30T00:07:00.490Z,-3.50
2019-01-30T00:09:32.546Z,-3.50
2019-01-30T00:12:03.651Z,-3.50
2019-01-30T00:14:34.694Z,-3.50
2019-01-30T00:17:04.966Z,-3.40
2019-01-30T00:19:35.054Z,-3.60
2019-01-30T00:22:06.215Z,-3.70
2019-01-30T00:24:36.318Z,-3.70
2019-01-30T00:27:07.343Z,-3.60
2019-01-30T00:29:44.534Z,-3.60
2019-01-30T00:32:15.137Z,-3.60
2019-01-30T00:34:45.382Z,-3.60
2019-01-30T00:37:15.467Z,-3.60
2019-01-30T00:39:46.470Z,-3.50
2019-01-30T00:42:16.578Z,-3.40
2019-01-30T00:44:46.671Z,-3.50
2019-01-30T00:47:17.174Z,-3.50
2019-01-30T00:49:48.244Z,-3.50
2019-01-30T00:52:18.335Z,-3.50
2019-01-30T00:54:48.430Z,-3.40
2019-01-30T00:57:18.530Z,-3.40
2019-01-30T01:00:13.992Z,-3.50
2019-01-30T01:02:59.647Z,-3.50
2019-01-30T01:05:31.672Z,-3.60
2019-01-30T01:08:01.800Z,-3.60
2019-01-30T01:10:35.990Z,-3.60
2019-01-30T01:13:08.082Z,-3.60
2019-01-30T01:15:46.974Z,-3.70
2019-01-30T01:18:17.100Z,-3.70
2019-01-30T01:20:50.190Z,-3.70
2019-01-30T01:23:23.474Z,-3.60
2019-01-30T01:25:59.610Z,-3.60
2019-01-30T01:28:30.867Z,-3.50
2019-01-30T01:31:00.950Z,-3.50
2019-01-30T01:33:31.043Z,-3.50
2019-01-30T01:36:02.029Z,-3.50
2019-01-30T01:38:32.110Z,-3.60
2019-01-30T01:41:02.227Z,-3.70
2019-01-30T01:43:33.323Z,-3.70
2019-01-30T01:46:03.555Z,-3.60
2019-01-30T01:48:39.833Z,-3.70
2019-01-30T01:51:09.927Z,-3.60
2019-01-30T01:53:43.042Z,-3.70
2019-01-30T01:56:14.082Z,-3.70
2019-01-30T01:58:44.198Z,-3.70
2019-01-30T02:01:14.306Z,-3.70
2019-01-30T02:03:45.299Z,-3.60
2019-01-30T02:06:21.622Z,-3.60
2019-01-30T02:08:51.710Z,-3.50
2019-01-30T02:11:22.775Z,-3.50
2019-01-30T02:13:54.751Z,-3.50
2019-01-30T02:16:26.750Z,-3.50
2019-01-30T02:18:58.735Z,-3.50
2019-01-30T02:21:28.818Z,-3.40
2019-01-30T02:23:59.799Z,-3.50
2019-01-30T02:26:33.492Z,-3.50
2019-01-30T02:29:09.313Z,-3.50
2019-01-30T02:31:39.432Z,-3.40
2019-01-30T02:34:16.631Z,-3.50
2019-01-30T02:36:58.598Z,-3.40
2019-01-30T02:39:28.686Z,-3.40
2019-01-30T02:41:58.786Z,-3.50
2019-01-30T02:44:31.918Z,-3.50
2019-01-30T02:47:02.039Z,-3.50
2019-01-30T02:49:38.038Z,-3.50
2019-01-30T02:52:09.220Z,-3.50
2019-01-30T02:54:47.130Z,-3.50
2019-01-30T02:57:17.314Z,-3.50
2019-01-30T02:59:48.306Z,-3.40
2019-01-30T03:02:20.971Z,-3.40
2019-01-30T03:04:57.020Z,-3.50
2019-01-30T03:07:27.131Z,-3.50
2019-01-30T03:09:57.235Z,-3.50
2019-01-30T03:12:27.318Z,-3.50
2019-01-30T03:14:57.415Z,-3.50
2019-01-30T03:17:27.528Z,-3.50
2019-01-30T03:19:57.608Z,-3.50
2019-01-30T03:22:27.738Z,-3.60
2019-01-30T03:24:57.826Z,-3.50
2019-01-30T03:27:27.910Z,-3.60
2019-01-30T03:29:59.037Z,-3.50
2019-01-30T03:32:29.092Z,-3.50
2019-01-30T03:35:01.110Z,-3.60
2019-01-30T03:37:32.162Z,-3.60
2019-01-30T03:40:02.256Z,-3.70
2019-01-30T03:42:33.366Z,-3.70
2019-01-30T03:45:17.764Z,-3.70
2019-01-30T03:48:00.874Z,-3.80
2019-01-30T03:50:32.940Z,-3.80
2019-01-30T03:53:10.410Z,-3.90
2019-01-30T03:55:41.490Z,-3.80
2019-01-30T03:58:11.563Z,-3.80
2019-01-30T04:00:43.915Z,-3.80
2019-01-30T04:03:14.014Z,-3.90
2019-01-30T04:05:44.136Z,-3.90
2019-01-30T04:08:16.167Z,-3.90
2019-01-30T04:10:46.263Z,-3.90
2019-01-30T04:13:21.427Z,-4.00
2019-01-30T04:15:51.514Z,-4.00
2019-01-30T04:18:21.670Z,-4.10
2019-01-30T04:20:57.507Z,-4.10
2019-01-30T04:23:27.607Z,-4.20
2019-01-30T04:25:57.703Z,-4.20
2019-01-30T04:28:33.810Z,-4.30
2019-01-30T04:31:05.931Z,-4.30
2019-01-30T04:33:45.020Z,-4.20
2019-01-30T04:36:24.135Z,-4.20
2019-01-30T04:38:55.198Z,-4.10
2019-01-30T04:41:25.326Z,-4.00
2019-01-30T04:43:55.420Z,-4.10
2019-01-30T04:46:27.471Z,-4.20
2019-01-30T04:48:59.523Z,-4.20
2019-01-30T04:51:36.307Z,-4.20
2019-01-30T04:54:08.431Z,-4.20
2019-01-30T04:56:39.435Z,-4.20
2019-01-30T04:59:09.537Z,-4.10
2019-01-30T05:01:49.470Z,-4.10
2019-01-30T05:04:13.379Z,-4.10
2019-01-30T05:06:45.439Z,-4.10
2019-01-30T05:09:17.479Z,-4.10
2019-01-30T05:11:56.714Z,-4.00
2019-01-30T05:14:27.756Z,-4.10
2019-01-30T05:17:06.590Z,-4.10
2019-01-30T05:19:45.539Z,-4.20
2019-01-30T05:22:16.555Z,-4.30
2019-01-30T05:24:49.738Z,-4.40
2019-01-30T05:27:21.803Z,-4.40
2019-01-30T05:29:54.903Z,-4.40
2019-01-30T05:32:31.043Z,-4.40
2019-01-30T05:35:01.132Z,-4.30
2019-01-30T05:37:33.135Z,-4.20
2019-01-30T05:40:04.507Z,-4.20
2019-01-30T05:42:40.433Z,-4.20
2019-01-30T05:45:19.082Z,-4.10
2019-01-30T05:47:50.150Z,-4.20
2019-01-30T05:50:21.247Z,-4.20
2019-01-30T05:53:01.303Z,-4.20
2019-01-30T05:55:32.327Z,-4.30
2019-01-30T05:58:02.432Z,-4.30
2019-01-30T06:00:35.867Z,-4.50
2019-01-30T06:03:12.734Z,-4.50
2019-01-30T06:05:43.820Z,-4.50
2019-01-30T06:08:13.790Z,-4.60
2019-01-30T06:10:50.634Z,-4.60
2019-01-30T06:13:20.726Z,-4.70
2019-01-30T06:15:52.710Z,-4.70
2019-01-30T06:18:31.892Z,-4.70
2019-01-30T06:21:05.190Z,-4.70
2019-01-30T06:23:36.206Z,-4.60
2019-01-30T06:26:07.367Z,-4.60
2019-01-30T06:28:37.459Z,-4.60
2019-01-30T06:31:07.575Z,-4.50
2019-01-30T06:33:41.683Z,-4.40
2019-01-30T06:36:13.762Z,-4.40
2019-01-30T06:38:43.830Z,-4.40
2019-01-30T06:41:14.904Z,-4.30
2019-01-30T06:43:45.944Z,-4.30
2019-01-30T06:46:16.026Z,-4.30
2019-01-30T06:48:47.113Z,-4.20
2019-01-30T06:51:17.183Z,-4.10
2019-01-30T06:53:47.264Z,-4.00
2019-01-30T06:56:17.358Z,-4.00
2019-01-30T06:58:48.430Z,-4.00
2019-01-30T07:01:18.519Z,-3.90
2019-01-30T07:03:50.798Z,-3.90
2019-01-30T07:06:21.823Z,-3.90
2019-01-30T07:08:51.943Z,-3.80
2019-01-30T07:11:22.095Z,-3.80
2019-01-30T07:13:52.183Z,-3.60
2019-01-30T07:16:23.215Z,-3.50
2019-01-30T07:18:54.271Z,-3.20
2019-01-30T07:21:33.504Z,-3.10
2019-01-30T07:24:05.859Z,-3.20
2019-01-30T07:26:35.943Z,-3.20
2019-01-30T07:29:12.759Z,-3.20
2019-01-30T07:31:44.887Z,-3.20
2019-01-30T07:34:14.986Z,-3.20
2019-01-30T07:36:45.079Z,-3.10
2019-01-30T07:39:16.144Z,-3.10
2019-01-30T07:41:57.355Z,-3.10
2019-01-30T07:44:27.515Z,-3.00
2019-01-30T07:46:58.543Z,-3.00
2019-01-30T07:49:28.668Z,-2.90
2019-01-30T07:51:59.691Z,-2.90
2019-01-30T07:54:30.759Z,-2.80
2019-01-30T07:57:00.872Z,-2.80
2019-01-30T07:59:32.101Z,-2.70
2019-01-30T08:02:02.219Z,-2.70
2019-01-30T08:04:33.259Z,-2.60
2019-01-30T08:07:03.348Z,-2.50
2019-01-30T08:09:34.415Z,-2.50
2019-01-30T08:12:12.689Z,-2.40
2019-01-30T08:14:43.867Z,-2.40
2019-01-30T08:17:16.991Z,-2.40
2019-01-30T08:19:49.027Z,-2.40
2019-01-30T08:22:23.271Z,-2.40
2019-01-30T08:24:54.467Z,-2.40
2019-01-30T08:27:24.559Z,-2.40
2019-01-30T08:29:59.772Z,-2.30
2019-01-30T08:32:29.978Z,-2.20
2019-01-30T08:35:00.011Z,-2.20
2019-01-30T08:37:38.560Z,-2.20
2019-01-30T08:40:11.703Z,-2.20
2019-01-30T08:42:43.778Z,-2.20
2019-01-30T08:45:29.703Z,-2.10
2019-01-30T08:48:00.842Z,-2.10
2019-01-30T08:50:32.271Z,-2.10
2019-01-30T08:53:08.295Z,-2.00
2019-01-30T08:55:38.377Z,-1.90
2019-01-30T08:58:08.532Z,-1.90
2019-01-30T09:00:38.637Z,-1.80
2019-01-30T09:03:14.951Z,-1.80
2019-01-30T09:05:40.572Z,-1.70
2019-01-30T09:08:10.667Z,-1.70
2019-01-30T09:10:41.851Z,-1.60
2019-01-30T09:13:12.915Z,-1.60
2019-01-30T09:15:43.012Z,-1.60
2019-01-30T09:18:13.111Z,-1.50
2019-01-30T09:20:43.183Z,-1.50
2019-01-30T09:23:13.739Z,-1.40
2019-01-30T09:25:43.827Z,-1.40
2019-01-30T09:28:13.947Z,-1.30
2019-01-30T09:30:46.326Z,-1.20
2019-01-30T09:33:25.647Z,-1.20
2019-01-30T09:35:49.163Z,-1.10
2019-01-30T09:38:19.255Z,-1.00
2019-01-30T09:40:56.824Z,-1.00
2019-01-30T09:43:27.207Z,-1.00
2019-01-30T09:45:57.478Z,-1.10
2019-01-30T09:48:29.475Z,-1.10
2019-01-30T09:50:59.753Z,-1.00
2019-01-30T09:53:29.957Z,-0.90
2019-01-30T09:56:01.297Z,-0.80
2019-01-30T09:58:31.559Z,-0.70
2019-01-30T10:01:05.144Z,-0.50
2019-01-30T10:03:36.445Z,-0.50
2019-01-30T10:06:12.429Z,-0.70
2019-01-30T10:08:43.439Z,-0.50
2019-01-30T10:11:13.727Z,-0.50
2019-01-30T10:13:43.851Z,-0.40
2019-01-30T10:16:13.995Z,-0.10
2019-01-30T10:18:44.111Z,-0.10
2019-01-30T10:21:15.168Z,0.10
2019-01-30T10:23:45.280Z,0.30
2019-01-30T10:26:16.383Z,0.70
2019-01-30T10:28:46.439Z,1.30
2019-01-30T10:31:16.543Z,1.50
2019-01-30T10:33:48.687Z,1.80
2019-01-30T10:36:18.887Z,1.80
2019-01-30T10:38:48.975Z,1.90
2019-01-30T10:41:19.317Z,2.40
2019-01-30T10:43:59.265Z,2.90
2019-01-30T10:46:40.512Z,3.00
2019-01-30T10:49:13.823Z,3.00
2019-01-30T10:51:44.929Z,3.20
2019-01-30T10:54:15.061Z,3.40
2019-01-30T10:56:45.136Z,3.40
2019-01-30T10:59:15.275Z,3.20
2019-01-30T11:01:51.431Z,2.80
2019-01-30T11:04:24.579Z,2.20
2019-01-30T11:06:54.716Z,1.50
2019-01-30T11:09:27.784Z,1.20
2019-01-30T11:12:08.098Z,0.80
2019-01-30T11:14:43.631Z,0.50
2019-01-30T11:17:20.499Z,0.40
2019-01-30T11:20:01.841Z,0.60
2019-01-30T11:22:33.895Z,0.60
2019-01-30T11:25:17.459Z,0.80
2019-01-30T11:27:48.668Z,0.90
2019-01-30T11:30:21.311Z,1.20
2019-01-30T11:32:56.068Z,1.50
2019-01-30T11:35:28.803Z,2.10
2019-01-30T11:37:58.946Z,2.30
2019-01-30T11:40:29.293Z,2.50
2019-01-30T11:43:11.748Z,2.70
2019-01-30T11:45:45.730Z,2.50
2019-01-30T11:48:17.791Z,2.90
2019-01-30T11:50:52.435Z,3.00
2019-01-30T11:53:22.572Z,3.20
2019-01-30T11:55:53.691Z,3.30
2019-01-30T11:58:29.672Z,3.10
2019-01-30T12:00:59.907Z,3.10
2019-01-30T12:03:34.307Z,3.50
2019-01-30T12:06:05.209Z,3.50
2019-01-30T12:08:36.255Z,3.50
2019-01-30T12:11:08.349Z,3.90
2019-01-30T12:13:38.420Z,4.50
2019-01-30T12:16:08.643Z,4.30
2019-01-30T12:18:39.979Z,4.50
2019-01-30T12:21:11.164Z,4.50
2019-01-30T12:23:56.539Z,4.40
2019-01-30T12:26:26.727Z,3.80
2019-01-30T12:28:56.811Z,3.50
2019-01-30T12:31:28.935Z,3.60
2019-01-30T12:33:59.279Z,3.70
2019-01-30T12:36:36.371Z,4.10
2019-01-30T12:39:14.627Z,4.30
2019-01-30T12:41:44.723Z,4.50
2019-01-30T12:44:18.559Z,4.60
2019-01-30T12:46:49.687Z,4.60
2019-01-30T12:49:19.763Z,5.10
2019-01-30T12:51:49.903Z,4.50
2019-01-30T12:54:27.776Z,4.50
2019-01-30T12:57:14.523Z,4.90
2019-01-30T12:59:45.524Z,5.00
2019-01-30T13:02:16.683Z,6.00
2019-01-30T13:04:46.739Z,6.80
2019-01-30T13:07:16.816Z,7.60
2019-01-30T13:09:47.803Z,8.20
2019-01-30T13:12:22.791Z,8.40
2019-01-30T13:14:52.931Z,8.30
2019-01-30T13:17:23.047Z,8.90
2019-01-30T13:19:54.047Z,8.30
2019-01-30T13:22:26.128Z,7.70
2019-01-30T13:24:57.227Z,7.80
2019-01-30T13:27:28.283Z,7.20
2019-01-30T13:30:01.401Z,7.00
2019-01-30T13:32:32.429Z,6.20
2019-01-30T13:35:05.728Z,5.10
2019-01-30T13:37:36.979Z,4.70
2019-01-30T13:40:12.847Z,4.70
2019-01-30T13:42:42.936Z,4.50
2019-01-30T13:45:15.348Z,3.90
2019-01-30T13:47:45.476Z,3.40
2019-01-30T13:50:21.884Z,3.10
2019-01-30T13:52:52.834Z,2.80
2019-01-30T13:55:24.240Z,2.60
2019-01-30T13:57:56.244Z,2.50
2019-01-30T14:00:30.848Z,2.40
2019-01-30T14:03:02.105Z,2.20
2019-01-30T14:05:34.060Z,2.10
2019-01-30T14:08:05.932Z,2.00
2019-01-30T14:10:37.094Z,1.90
2019-01-30T14:13:08.296Z,1.80
2019-01-30T14:15:38.851Z,1.70
2019-01-30T14:18:10.915Z,1.70
2019-01-30T14:20:41.268Z,1.60
2019-01-30T14:23:11.488Z,1.50
2019-01-30T14:25:41.682Z,1.40
2019-01-30T14:28:11.905Z,1.30
2019-01-30T14:30:42.474Z,1.30
2019-01-30T14:33:12.582Z,1.20
2019-01-30T14:35:44.492Z,1.20
2019-01-30T14:38:21.611Z,1.20
2019-01-30T14:40:52.962Z,1.20
2019-01-30T14:43:23.269Z,1.10
2019-01-30T14:45:53.486Z,1.00
2019-01-30T14:48:23.788Z,1.00
2019-01-30T14:50:57.560Z,1.00
2019-01-30T14:53:31.020Z,1.00
2019-01-30T14:56:02.233Z,1.00
2019-01-30T14:58:32.528Z,1.00
2019-01-30T15:01:02.705Z,1.00
2019-01-30T15:03:43.065Z,0.90
2019-01-30T15:06:13.095Z,0.80
2019-01-30T15:08:43.168Z,0.80
2019-01-30T15:11:15.176Z,0.70
2019-01-30T15:13:47.232Z,0.60
2019-01-30T15:16:17.311Z,0.60
2019-01-30T15:18:47.397Z,0.60
2019-01-30T15:21:18.388Z,0.60
2019-01-30T15:23:49.348Z,0.60
2019-01-30T15:26:19.460Z,0.50
2019-01-30T15:28:49.543Z,0.50
2019-01-30T15:31:19.628Z,0.50
2019-01-30T15:33:50.934Z,0.50
2019-01-30T15:36:21.052Z,0.40
2019-01-30T15:38:51.336Z,0.40
2019-01-30T15:41:21.348Z,0.50
2019-01-30T15:43:57.388Z,0.60
2019-01-30T15:46:33.512Z,0.80
2019-01-30T15:49:06.409Z,0.80
2019-01-30T15:51:40.609Z,0.80
2019-01-30T15:54:19.855Z,0.90
2019-01-30T15:56:56.008Z,0.90
2019-01-30T15:59:26.364Z,0.90
2019-01-30T16:01:56.524Z,0.90
2019-01-30T16:04:32.466Z,0.90
2019-01-30T16:07:04.684Z,0.90
2019-01-30T16:09:36.680Z,0.90
2019-01-30T16:12:15.776Z,0.90
2019-01-30T16:14:45.870Z,0.90
2019-01-30T16:17:18.960Z,0.90
2019-01-30T16:19:57.208Z,0.90
2019-01-30T16:22:27.264Z,0.90
2019-01-30T16:25:08.491Z,0.80
2019-01-30T16:27:32.728Z,0.80
2019-01-30T16:30:16.860Z,0.80
2019-01-30T16:32:47.912Z,0.80
2019-01-30T16:35:25.360Z,0.80
2019-01-30T16:37:56.438Z,0.80
2019-01-30T16:40:27.588Z,0.70
2019-01-30T16:42:57.670Z,0.80
2019-01-30T16:45:32.824Z,0.80
2019-01-30T16:48:06.105Z,0.80
2019-01-30T16:50:48.360Z,0.80
2019-01-30T16:53:21.580Z,0.70
2019-01-30T16:55:51.646Z,0.70
2019-01-30T16:58:23.608Z,0.60
2019-01-30T17:00:57.693Z,0.60
2019-01-30T17:03:33.613Z,0.50
2019-01-30T17:06:07.960Z,0.50
2019-01-30T17:08:38.012Z,0.50
2019-01-30T17:11:18.176Z,0.50
2019-01-30T17:13:49.220Z,0.50
2019-01-30T17:16:27.224Z,0.50
2019-01-30T17:18:58.280Z,0.60
2019-01-30T17:21:34.410Z,0.60
2019-01-30T17:24:10.304Z,0.60
2019-01-30T17:26:43.384Z,0.70
2019-01-30T17:29:13.526Z,0.80
2019-01-30T17:31:43.532Z,0.80
2019-01-30T17:34:16.252Z,0.90
2019-01-30T17:36:46.349Z,1.00
2019-01-30T17:39:16.332Z,1.00
2019-01-30T17:41:55.241Z,1.00
2019-01-30T17:44:30.240Z,1.00
2019-01-30T17:47:00.312Z,1.00
2019-01-30T17:49:31.487Z,1.00
2019-01-30T17:52:03.522Z,1.10
2019-01-30T17:54:35.357Z,1.10
2019-01-30T17:57:11.438Z,1.10
2019-01-30T17:59:44.537Z,1.10
2019-01-30T18:02:15.108Z,1.20
2019-01-30T18:04:46.192Z,1.20
2019-01-30T18:07:22.044Z,1.20
2019-01-30T18:09:52.137Z,1.20
2019-01-30T18:12:24.138Z,1.20
2019-01-30T18:14:54.213Z,1.20
2019-01-30T18:17:30.100Z,1.20
2019-01-30T18:20:02.152Z,1.20
2019-01-30T18:22:38.352Z,1.20
2019-01-30T18:25:14.167Z,1.20
2019-01-30T18:27:46.860Z,1.20
2019-01-30T18:30:22.214Z,1.20
2019-01-30T18:32:58.088Z,1.20
2019-01-30T18:35:28.180Z,1.10
2019-01-30T18:37:59.284Z,1.10
2019-01-30T18:40:33.073Z,1.10
2019-01-30T18:43:08.860Z,1.10
2019-01-30T18:45:40.944Z,1.10
2019-01-30T18:48:11.116Z,1.10
2019-01-30T18:50:41.196Z,1.10
2019-01-30T18:53:13.336Z,1.10
2019-01-30T18:55:43.408Z,1.10
2019-01-30T18:58:13.493Z,1.10
2019-01-30T19:00:49.320Z,1.10
2019-01-30T19:03:19.471Z,1.10
2019-01-30T19:05:49.642Z,1.00
2019-01-30T19:08:19.942Z,1.10
2019-01-30T19:10:50.040Z,1.10
2019-01-30T19:13:23.306Z,1.10
2019-01-30T19:15:55.365Z,1.10
2019-01-30T19:18:26.336Z,1.00
2019-01-30T19:20:57.312Z,1.00
2019-01-30T19:23:28.506Z,1.00
2019-01-30T19:26:00.057Z,1.00
2019-01-30T19:28:30.129Z,1.00
2019-01-30T19:31:06.345Z,1.00
2019-01-30T19:33:44.047Z,1.00
2019-01-30T19:36:18.945Z,1.00
2019-01-30T19:38:51.050Z,1.00
2019-01-30T19:41:28.105Z,0.90
2019-01-30T19:44:02.630Z,0.90
2019-01-30T19:46:35.369Z,0.90
2019-01-30T19:49:08.341Z,0.80
2019-01-30T19:51:38.425Z,0.90
2019-01-30T19:54:15.312Z,0.90
2019-01-30T19:56:54.417Z,0.90
2019-01-30T19:59:24.513Z,0.90
2019-01-30T20:01:55.628Z,0.90
2019-01-30T20:04:25.649Z,0.90
2019-01-30T20:06:56.620Z,0.80
2019-01-30T20:09:28.756Z,0.70
2019-01-30T20:11:58.900Z,0.40
2019-01-30T20:14:36.899Z,0.20
2019-01-30T20:17:08.977Z,0.00
2019-01-30T20:19:40.010Z,-0.20
2019-01-30T20:22:11.053Z,-0.30
2019-01-30T20:24:43.118Z,-0.40
2019-01-30T20:27:14.198Z,-0.50
2019-01-30T20:29:44.297Z,-0.60
2019-01-30T20:32:14.403Z,-0.60
2019-01-30T20:34:44.597Z,-0.60
2019-01-30T20:37:26.002Z,-0.60
2019-01-30T20:39:48.373Z,-0.60
2019-01-30T20:42:24.202Z,-0.60
2019-01-30T20:44:55.345Z,-0.50
2019-01-30T20:47:26.367Z,-0.50
2019-01-30T20:49:57.358Z,-0.50
2019-01-30T20:52:27.437Z,-0.50
2019-01-30T20:54:59.842Z,-0.40
2019-01-30T20:57:41.351Z,-0.40
2019-01-30T21:00:24.689Z,-0.40
2019-01-30T21:02:55.821Z,-0.40
2019-01-30T21:05:26.981Z,-0.30
2019-01-30T21:07:57.309Z,-0.30
2019-01-30T21:10:37.137Z,-0.30
2019-01-30T21:13:09.278Z,-0.40
2019-01-30T21:15:40.671Z,-0.30
2019-01-30T21:18:11.709Z,-0.40
2019-01-30T21:20:41.809Z,-0.40
2019-01-30T21:23:17.659Z,-0.50
2019-01-30T21:25:49.929Z,-0.50
2019-01-30T21:28:20.493Z,-0.50
2019-01-30T21:30:56.385Z,-0.50
2019-01-30T21:33:30.657Z,-0.60
2019-01-30T21:36:00.741Z,-0.60
2019-01-30T21:38:32.373Z,-0.70
2019-01-30T21:41:02.460Z,-0.70
2019-01-30T21:43:37.600Z,-0.70
2019-01-30T21:46:07.817Z,-0.70
2019-01-30T21:48:40.857Z,-0.70
2019-01-30T21:51:17.070Z,-0.70
2019-01-30T21:53:49.125Z,-0.70
2019-01-30T21:56:35.449Z,-0.70
2019-01-30T21:59:07.489Z,-0.70
2019-01-30T22:01:37.614Z,-0.80
2019-01-30T22:04:13.665Z,-0.80
2019-01-30T22:06:43.733Z,-0.80
2019-01-30T22:09:19.697Z,-0.90
2019-01-30T22:11:51.701Z,-0.90
2019-01-30T22:14:21.798Z,-0.90
2019-01-30T22:16:51.937Z,-0.90
2019-01-30T22:19:29.725Z,-0.90
2019-01-30T22:22:01.382Z,-1.00
2019-01-30T22:24:35.481Z,-1.00
2019-01-30T22:27:07.425Z,-1.20
2019-01-30T22:29:39.421Z,-1.30
2019-01-30T22:32:10.169Z,-1.40
2019-01-30T22:34:40.942Z,-1.50
2019-01-30T22:37:12.057Z,-1.70
2019-01-30T22:39:43.065Z,-1.90
2019-01-30T22:42:19.073Z,-2.00
2019-01-30T22:44:49.177Z,-2.20
2019-01-30T22:47:19.237Z,-2.30
2019-01-30T22:49:49.325Z,-2.30
2019-01-30T22:52:20.318Z,-2.30
2019-01-30T22:54:55.405Z,-2.30
2019-01-30T22:57:28.961Z,-2.20
2019-01-30T22:59:59.997Z,-2.20
2019-01-30T23:02:33.661Z,-2.30
2019-01-30T23:05:17.133Z,-2.30
2019-01-30T23:07:51.834Z,-2.40
2019-01-30T23:10:58.225Z,-2.40
2019-01-30T23:13:48.565Z,-2.30
2019-01-30T23:16:59.976Z,-2.20
2019-01-30T23:19:50.007Z,-2.20
2019-01-30T23:23:11.912Z,-2.10
2019-01-30T23:25:51.463Z,-2.10
2019-01-30T23:29:03.955Z,-2.20
2019-01-30T23:31:59.709Z,-2.20
2019-01-30T23:34:59.530Z,-2.40
2019-01-30T23:37:48.169Z,-2.50
2019-01-30T23:40:37.809Z,-2.70
2019-01-30T23:43:46.012Z,-2.80
2019-01-30T23:46:26.972Z,-3.00
2019-01-30T23:49:23.957Z,-3.10
2019-01-30T23:52:26.851Z,-3.20
2019-01-30T23:55:08.406Z,-3.30
2019-01-30T23:58:14.561Z,-3.30
